Página principal
METAR-TAF:

METAR-TAF

Aeroportos :

Anguilla, Anguilla

latitude: 18-12-17N, longitude: 063-03-18W, altura: 31 m

Observação actual do tempo

O boletim foi feito há 12 horas e 15 minutos, às 23:00 UTC
Vento 11 kt de este
Temperatura 28°C
Humidade 79%
Pressão 1014 hPa
Visibilidade 10 km ou mais
Poucas nuvensa uma altura de 2000 ft

METAR: TQPF 182300Z 09011KT 9999 FEW020 28/24 Q1014 RMK NOSIG

Hora: 07:15 (11:15 UTC)

Previsão

O boletim foi feito há 18 horas e 15 minutos, às 17:00 UTC
Previsão válida de 18 às 18 UTC a 19 às 18 UTC
Vento 11 kt de este
Visibilidade 10 km ou mais
Nuvens dispersasa uma altura de 1900 ft
Probabilidade 40% :
Temporariamente
de 19 às 12 UTC a 19 às 18 UTC
aguaceiros de chuva

TAF: TQPF 181700Z 1818/1918 09011KT 9999 SCT019 PROB40 TEMPO 1912/1918 SHRA

Observações e previsões do tempo de mais de 4000 aeroportos (mensagens METAR e TAF).

As estações disponíveis são os pontos amarelos e vermelhos sobre o mapa.

Mova o rato sobre o mapa para ver o nome da estação.

Depois clique no ponto para visualizar as observações e previsões meteorológicas.

Para alterar o mapa : clique nos botões verdes com uma cruz preta para aumentar o zoom; no botão verde com uma pitada de zoom; ou nas setas verdes para mapas adjacentes.


METAR-TAF: